createdAt,value
2022-12-31T00:00:08.131Z,1.27
2022-12-31T00:02:34.792Z,1.83
2022-12-31T00:05:01.317Z,1.30
2022-12-31T00:07:27.891Z,1.98
2022-12-31T00:09:54.307Z,2.03
2022-12-31T00:12:20.705Z,2.08
2022-12-31T00:14:47.930Z,1.98
2022-12-31T00:17:14.445Z,2.30
2022-12-31T00:19:40.929Z,3.20
2022-12-31T00:22:07.343Z,2.50
2022-12-31T00:24:35.802Z,2.83
2022-12-31T00:27:02.352Z,3.00
2022-12-31T00:29:28.791Z,3.13
2022-12-31T00:31:55.272Z,2.60
2022-12-31T00:34:21.744Z,2.97
2022-12-31T00:36:48.339Z,3.10
2022-12-31T00:39:14.853Z,2.42
2022-12-31T00:41:43.244Z,2.13
2022-12-31T00:44:11.967Z,1.88
2022-12-31T00:49:07.382Z,2.05
2022-12-31T00:51:33.992Z,2.55
2022-12-31T00:54:00.961Z,2.25
2022-12-31T00:56:30.242Z,2.05
2022-12-31T00:58:59.079Z,1.95
2022-12-31T01:01:37.368Z,1.73
2022-12-31T01:04:13.264Z,2.13
2022-12-31T01:06:40.291Z,1.50
2022-12-31T01:09:07.785Z,2.30
2022-12-31T01:11:34.553Z,1.52
2022-12-31T01:14:05.816Z,1.85
2022-12-31T01:16:39.475Z,1.80
2022-12-31T01:19:09.283Z,2.17
2022-12-31T01:21:37.782Z,2.08
2022-12-31T01:24:04.676Z,2.13
2022-12-31T01:26:31.255Z,2.42
2022-12-31T01:28:57.944Z,1.75
2022-12-31T01:31:25.444Z,1.75
2022-12-31T01:33:52.411Z,1.65
2022-12-31T01:36:25.570Z,1.80
2022-12-31T01:38:53.228Z,1.73
2022-12-31T01:41:22.519Z,1.85
2022-12-31T01:43:50.760Z,1.98
2022-12-31T01:46:37.575Z,1.73
2022-12-31T01:49:32.035Z,1.90
2022-12-31T01:52:11.421Z,1.70
2022-12-31T01:54:42.143Z,2.22
2022-12-31T01:57:09.966Z,1.85
2022-12-31T01:59:37.234Z,1.70
2022-12-31T02:02:05.261Z,2.08
2022-12-31T02:04:32.029Z,1.65
2022-12-31T02:07:01.601Z,2.20
2022-12-31T02:09:28.666Z,2.33
2022-12-31T02:11:55.204Z,2.78
2022-12-31T02:14:29.116Z,1.88
2022-12-31T02:17:13.051Z,1.90
2022-12-31T02:19:48.628Z,1.58
2022-12-31T02:22:36.445Z,1.80
2022-12-31T02:25:08.844Z,1.73
2022-12-31T02:28:01.282Z,1.80
2022-12-31T02:30:32.167Z,2.03
2022-12-31T02:35:45.817Z,1.70
2022-12-31T02:38:19.396Z,1.92
2022-12-31T02:40:47.113Z,2.10
2022-12-31T02:43:13.699Z,1.55
2022-12-31T02:45:44.971Z,1.55
2022-12-31T02:48:29.632Z,1.45
2022-12-31T02:51:19.082Z,1.23
2022-12-31T02:54:00.466Z,1.25
2022-12-31T02:56:39.109Z,1.05
2022-12-31T02:59:56.130Z,1.08
2022-12-31T03:02:24.613Z,1.10
2022-12-31T03:04:56.473Z,1.02
2022-12-31T03:07:26.492Z,0.70
2022-12-31T03:09:53.555Z,1.05
2022-12-31T03:12:42.020Z,1.27
2022-12-31T03:15:19.873Z,1.10
2022-12-31T03:17:52.248Z,1.10
2022-12-31T03:20:38.387Z,1.30
2022-12-31T03:23:08.250Z,1.00
2022-12-31T03:25:34.864Z,1.23
2022-12-31T03:28:05.471Z,1.52
2022-12-31T03:30:33.274Z,1.00
2022-12-31T03:32:59.928Z,1.30
2022-12-31T03:35:29.399Z,1.15
2022-12-31T03:37:56.663Z,1.48
2022-12-31T03:40:25.383Z,1.10
2022-12-31T03:42:52.350Z,1.38
2022-12-31T03:45:19.128Z,1.00
2022-12-31T03:47:48.870Z,1.27
2022-12-31T03:50:17.160Z,1.45
2022-12-31T03:52:43.709Z,1.20
2022-12-31T03:55:11.295Z,1.00
2022-12-31T03:57:38.504Z,1.15
2022-12-31T04:00:07.563Z,0.90
2022-12-31T04:02:34.093Z,1.27
2022-12-31T04:05:00.689Z,1.02
2022-12-31T04:07:27.099Z,0.93
2022-12-31T04:09:53.491Z,0.98
2022-12-31T04:12:19.900Z,0.90
2022-12-31T04:14:46.345Z,1.10
2022-12-31T04:17:12.791Z,1.10
2022-12-31T04:19:39.250Z,1.08
2022-12-31T04:22:06.192Z,1.50
2022-12-31T04:24:32.623Z,1.20
2022-12-31T04:27:05.341Z,1.33
2022-12-31T04:29:34.225Z,1.75
2022-12-31T04:32:01.091Z,1.52
2022-12-31T04:34:27.573Z,1.40
2022-12-31T04:36:53.982Z,1.50
2022-12-31T04:39:20.620Z,1.60
2022-12-31T04:41:47.157Z,1.80
2022-12-31T04:44:13.624Z,1.92
2022-12-31T04:46:40.166Z,1.52
2022-12-31T04:49:07.701Z,1.90
2022-12-31T04:51:34.393Z,1.60
2022-12-31T04:54:00.866Z,1.65
2022-12-31T04:56:28.234Z,2.00
2022-12-31T04:58:55.439Z,1.67
2022-12-31T05:01:23.050Z,1.90
2022-12-31T05:03:49.572Z,1.70
2022-12-31T05:06:18.983Z,2.45
2022-12-31T05:08:45.741Z,2.08
2022-12-31T05:11:12.584Z,2.10
2022-12-31T05:13:39.239Z,2.25
2022-12-31T05:16:07.004Z,2.00
2022-12-31T05:18:33.972Z,2.15
2022-12-31T05:21:00.695Z,2.10
2022-12-31T05:23:27.421Z,1.90
2022-12-31T05:25:53.923Z,1.55
2022-12-31T05:28:20.360Z,1.83
2022-12-31T05:30:50.949Z,1.50
2022-12-31T05:33:18.781Z,2.28
2022-12-31T05:35:46.068Z,1.63
2022-12-31T05:38:12.503Z,1.45
2022-12-31T05:40:39.087Z,1.38
2022-12-31T05:43:05.497Z,1.30
2022-12-31T05:45:31.929Z,1.35
2022-12-31T05:47:58.486Z,1.65
2022-12-31T05:50:25.046Z,1.52
2022-12-31T05:52:51.571Z,1.80
2022-12-31T05:55:18.021Z,1.70
2022-12-31T05:57:44.405Z,1.85
2022-12-31T06:00:11.970Z,1.90
2022-12-31T06:02:38.565Z,1.50
2022-12-31T06:05:05.598Z,1.60
2022-12-31T06:07:32.302Z,1.60
2022-12-31T06:09:58.962Z,1.17
2022-12-31T06:12:25.471Z,1.33
2022-12-31T06:14:51.886Z,1.48
2022-12-31T06:17:19.064Z,1.30
2022-12-31T06:19:47.203Z,1.58
2022-12-31T06:22:14.004Z,1.58
2022-12-31T06:24:40.476Z,1.60
2022-12-31T06:27:06.918Z,1.60
2022-12-31T06:29:33.575Z,1.85
2022-12-31T06:31:59.934Z,1.80
2022-12-31T06:34:26.387Z,1.67
2022-12-31T06:36:52.864Z,1.40
2022-12-31T06:39:19.346Z,1.70
2022-12-31T06:41:45.765Z,1.73
2022-12-31T06:44:12.246Z,2.10
2022-12-31T06:46:39.368Z,2.47
2022-12-31T06:49:06.009Z,2.40
2022-12-31T06:51:32.548Z,2.15
2022-12-31T06:53:59.032Z,3.22
2022-12-31T06:56:33.820Z,2.33
2022-12-31T06:59:01.902Z,2.65
2022-12-31T07:01:57.401Z,2.95
2022-12-31T07:04:32.800Z,2.47
2022-12-31T07:07:18.039Z,2.33
2022-12-31T07:10:29.019Z,1.83
2022-12-31T07:13:14.332Z,2.00
2022-12-31T07:16:07.191Z,1.77
2022-12-31T07:18:47.826Z,1.40
2022-12-31T07:21:18.570Z,1.83
2022-12-31T07:23:45.465Z,1.30
2022-12-31T07:26:18.023Z,1.10
2022-12-31T07:28:58.716Z,1.08
2022-12-31T07:31:45.882Z,0.90
2022-12-31T07:34:22.347Z,0.85
2022-12-31T07:37:16.001Z,0.60
2022-12-31T07:39:51.516Z,0.63
2022-12-31T07:42:42.481Z,0.55
2022-12-31T07:45:24.447Z,0.60
2022-12-31T07:47:51.032Z,0.40
2022-12-31T07:50:19.129Z,0.50
2022-12-31T07:52:46.321Z,0.70
2022-12-31T07:55:13.064Z,0.55
2022-12-31T07:58:03.245Z,0.70
2022-12-31T08:00:31.132Z,0.73
2022-12-31T08:03:18.545Z,1.00
2022-12-31T08:06:06.062Z,0.95
2022-12-31T08:08:43.017Z,0.80
2022-12-31T08:11:39.119Z,0.98
2022-12-31T08:14:10.111Z,0.88
2022-12-31T08:16:37.927Z,0.80
2022-12-31T08:19:04.823Z,0.95
2022-12-31T08:21:48.722Z,1.10
2022-12-31T08:24:35.796Z,0.90
2022-12-31T08:27:08.461Z,0.73
2022-12-31T08:29:43.514Z,0.70
2022-12-31T08:32:16.996Z,0.77
2022-12-31T08:34:58.496Z,1.35
2022-12-31T08:37:36.900Z,1.05
2022-12-31T08:40:40.374Z,1.13
2022-12-31T08:43:37.736Z,1.00
2022-12-31T08:46:14.920Z,1.17
2022-12-31T08:48:46.237Z,0.95
2022-12-31T08:51:20.652Z,1.15
2022-12-31T08:53:50.365Z,0.98
2022-12-31T08:56:34.400Z,1.08
2022-12-31T08:59:26.822Z,1.00
2022-12-31T09:01:56.295Z,1.20
2022-12-31T09:04:39.370Z,1.20
2022-12-31T09:07:09.444Z,0.88
2022-12-31T09:09:38.679Z,1.00
2022-12-31T09:12:11.656Z,0.95
2022-12-31T09:14:48.217Z,1.35
2022-12-31T09:17:47.362Z,0.90
2022-12-31T09:20:42.845Z,1.17
2022-12-31T09:23:10.916Z,1.77
2022-12-31T09:25:46.927Z,1.20
2022-12-31T09:28:16.042Z,0.90
2022-12-31T09:31:09.263Z,2.13
2022-12-31T09:33:41.489Z,1.55
2022-12-31T09:36:16.100Z,1.38
2022-12-31T09:38:52.346Z,1.45
2022-12-31T09:41:37.674Z,1.48
2022-12-31T09:44:10.050Z,1.42
2022-12-31T09:47:01.176Z,1.85
2022-12-31T09:49:42.762Z,1.70
2022-12-31T09:52:25.385Z,1.70
2022-12-31T09:55:01.030Z,1.60
2022-12-31T09:57:49.249Z,1.23
2022-12-31T10:00:22.389Z,1.30
2022-12-31T10:03:10.507Z,1.60
2022-12-31T10:06:06.336Z,1.10
2022-12-31T10:08:56.789Z,1.75
2022-12-31T10:11:31.034Z,2.85
2022-12-31T10:14:26.931Z,1.20
2022-12-31T10:17:33.535Z,1.38
2022-12-31T10:20:02.905Z,1.85
2022-12-31T10:22:38.353Z,3.13
2022-12-31T10:25:19.842Z,1.50
2022-12-31T10:28:06.907Z,5.53
2022-12-31T10:30:35.759Z,1.42
2022-12-31T10:33:37.557Z,1.15
2022-12-31T10:36:09.360Z,1.30
2022-12-31T10:38:51.796Z,1.65
2022-12-31T10:41:46.340Z,1.75
2022-12-31T10:44:43.772Z,1.20
2022-12-31T10:47:58.849Z,1.60
2022-12-31T10:50:34.299Z,1.70
2022-12-31T10:53:09.731Z,1.30
2022-12-31T10:55:56.592Z,1.33
2022-12-31T10:58:59.092Z,1.70
2022-12-31T11:01:42.155Z,1.80
2022-12-31T11:04:42.407Z,1.48
2022-12-31T11:07:30.249Z,0.80
2022-12-31T11:10:44.855Z,1.38
2022-12-31T11:13:17.401Z,1.00
2022-12-31T11:15:56.062Z,1.30
2022-12-31T11:18:22.652Z,1.33
2022-12-31T11:21:07.831Z,1.45
2022-12-31T11:24:03.884Z,1.20
2022-12-31T11:26:55.206Z,1.58
2022-12-31T11:30:02.055Z,1.70
2022-12-31T11:32:44.568Z,1.48
2022-12-31T11:35:32.531Z,1.40
2022-12-31T11:38:14.977Z,1.85
2022-12-31T11:40:57.043Z,2.22
2022-12-31T11:43:26.510Z,2.33
2022-12-31T11:45:58.960Z,2.38
2022-12-31T11:48:40.427Z,2.28
2022-12-31T11:51:27.593Z,2.35
2022-12-31T11:54:12.092Z,2.55
2022-12-31T11:56:41.188Z,2.38
2022-12-31T11:59:19.224Z,1.73
2022-12-31T12:01:51.803Z,3.30
2022-12-31T12:04:18.474Z,1.85
2022-12-31T12:06:46.032Z,1.98
2022-12-31T12:09:17.177Z,1.92
2022-12-31T12:11:43.582Z,1.10
2022-12-31T12:14:37.345Z,1.77
2022-12-31T12:17:08.179Z,1.50
2022-12-31T12:19:42.767Z,1.42
2022-12-31T12:22:19.770Z,1.90
2022-12-31T12:27:23.206Z,2.00
2022-12-31T12:29:49.735Z,1.58
2022-12-31T12:32:21.827Z,1.80
2022-12-31T12:34:50.071Z,2.70
2022-12-31T12:37:33.090Z,1.40
2022-12-31T12:40:18.422Z,1.65
2022-12-31T12:42:49.068Z,1.90
2022-12-31T12:45:51.189Z,1.30
2022-12-31T12:48:39.257Z,1.63
2022-12-31T12:51:50.661Z,1.60
2022-12-31T12:54:25.433Z,1.65
2022-12-31T12:57:20.636Z,1.30
2022-12-31T12:59:58.970Z,2.17
2022-12-31T13:02:37.673Z,1.73
2022-12-31T13:05:16.018Z,2.05
2022-12-31T13:08:09.742Z,2.78
2022-12-31T13:10:48.213Z,1.95
2022-12-31T13:13:50.938Z,1.50
2022-12-31T13:16:40.282Z,1.63
2022-12-31T13:19:06.693Z,1.98
2022-12-31T13:21:46.018Z,1.60
2022-12-31T13:24:47.807Z,2.10
2022-12-31T13:27:28.625Z,3.10
2022-12-31T13:29:58.957Z,1.38
2022-12-31T13:32:51.070Z,2.58
2022-12-31T13:35:31.190Z,1.70
2022-12-31T13:38:12.550Z,1.58
2022-12-31T13:40:52.540Z,3.22
2022-12-31T13:43:34.280Z,1.77
2022-12-31T13:46:07.748Z,1.52
2022-12-31T13:48:48.381Z,3.65
2022-12-31T13:51:22.976Z,3.63
2022-12-31T13:53:59.853Z,2.00
2022-12-31T13:56:33.442Z,2.35
2022-12-31T13:59:26.471Z,2.25
2022-12-31T14:02:01.807Z,2.17
2022-12-31T14:04:36.078Z,2.55
2022-12-31T14:07:14.082Z,3.50
2022-12-31T14:09:40.584Z,1.98
2022-12-31T14:12:19.680Z,1.90
2022-12-31T14:14:49.045Z,1.58
2022-12-31T14:17:49.603Z,1.55
2022-12-31T14:20:33.244Z,1.40
2022-12-31T14:23:17.923Z,2.20
2022-12-31T14:25:59.571Z,1.65
2022-12-31T14:28:33.854Z,1.95
2022-12-31T14:31:30.014Z,1.90
2022-12-31T14:33:59.345Z,1.35
2022-12-31T14:36:53.699Z,2.13
2022-12-31T14:39:38.814Z,2.00
2022-12-31T14:42:29.441Z,2.03
2022-12-31T14:45:04.230Z,1.92
2022-12-31T14:47:45.916Z,1.80
2022-12-31T14:50:25.063Z,1.65
2022-12-31T14:53:03.640Z,2.40
2022-12-31T14:55:34.476Z,2.00
2022-12-31T15:01:08.710Z,2.17
2022-12-31T15:03:46.115Z,1.77
2022-12-31T15:06:49.873Z,2.28
2022-12-31T15:09:40.913Z,4.88
2022-12-31T15:12:22.025Z,3.13
2022-12-31T15:15:16.471Z,2.60
2022-12-31T15:17:58.167Z,3.03
2022-12-31T15:21:07.738Z,1.83
2022-12-31T15:23:39.484Z,2.67
2022-12-31T15:26:06.906Z,2.78
2022-12-31T15:28:36.490Z,1.92
2022-12-31T15:31:19.904Z,3.17
2022-12-31T15:33:58.308Z,2.13
2022-12-31T15:36:28.174Z,2.45
2022-12-31T15:39:40.971Z,2.22
2022-12-31T15:42:43.412Z,2.13
2022-12-31T15:45:20.985Z,3.00
2022-12-31T15:47:53.232Z,2.78
2022-12-31T15:50:22.461Z,2.67
2022-12-31T15:52:54.504Z,2.78
2022-12-31T15:55:41.582Z,2.47
2022-12-31T15:58:18.436Z,2.70
2022-12-31T16:01:14.691Z,2.10
2022-12-31T16:03:47.991Z,2.83
2022-12-31T16:06:16.356Z,4.47
2022-12-31T16:08:48.627Z,3.00
2022-12-31T16:11:15.937Z,3.17
2022-12-31T16:13:45.730Z,4.72
2022-12-31T16:16:31.588Z,2.78
2022-12-31T16:18:58.717Z,2.33
2022-12-31T16:21:28.091Z,2.28
2022-12-31T16:23:57.679Z,2.80
2022-12-31T16:26:31.683Z,5.28
2022-12-31T16:29:00.179Z,11.95
2022-12-31T16:31:29.586Z,3.33
2022-12-31T16:34:26.026Z,3.05
2022-12-31T16:37:13.566Z,3.58
2022-12-31T16:40:07.973Z,4.43
2022-12-31T16:42:44.234Z,2.20
2022-12-31T16:45:39.183Z,3.50
2022-12-31T16:48:19.822Z,5.25
2022-12-31T16:50:53.094Z,5.35
2022-12-31T16:53:22.391Z,3.55
2022-12-31T16:56:08.546Z,5.22
2022-12-31T16:58:39.939Z,3.65
2022-12-31T17:01:19.106Z,3.67
2022-12-31T17:03:51.223Z,5.30
2022-12-31T17:06:20.027Z,3.67
2022-12-31T17:09:07.120Z,3.72
2022-12-31T17:11:43.538Z,3.58
2022-12-31T17:14:15.668Z,2.90
2022-12-31T17:17:03.117Z,3.03
2022-12-31T17:19:36.074Z,3.70
2022-12-31T17:22:04.785Z,3.70
2022-12-31T17:24:31.619Z,3.83
2022-12-31T17:27:05.049Z,3.50
2022-12-31T17:29:32.230Z,5.80
2022-12-31T17:32:00.035Z,5.25
2022-12-31T17:34:32.399Z,4.50
2022-12-31T17:37:02.499Z,5.10
2022-12-31T17:39:47.106Z,4.43
2022-12-31T17:42:22.749Z,3.58
2022-12-31T17:44:49.224Z,3.72
2022-12-31T17:47:15.706Z,3.65
2022-12-31T17:49:45.862Z,4.45
2022-12-31T17:52:14.475Z,4.68
2022-12-31T17:54:41.698Z,5.15
2022-12-31T17:57:22.960Z,4.10
2022-12-31T17:59:49.429Z,4.80
2022-12-31T18:02:16.013Z,4.47
2022-12-31T18:04:42.521Z,3.33
2022-12-31T18:07:08.957Z,3.50
2022-12-31T18:09:35.463Z,3.83
2022-12-31T18:12:05.665Z,3.83
2022-12-31T18:14:32.050Z,3.03
2022-12-31T18:16:58.559Z,3.95
2022-12-31T18:19:54.199Z,3.60
2022-12-31T18:22:16.165Z,3.78
2022-12-31T18:24:44.039Z,2.88
2022-12-31T18:27:16.056Z,3.58
2022-12-31T18:29:42.530Z,3.95
2022-12-31T18:32:22.828Z,3.50
2022-12-31T18:34:49.696Z,3.50
2022-12-31T18:37:21.679Z,3.50
2022-12-31T18:39:48.784Z,3.65
2022-12-31T18:42:18.276Z,3.60
2022-12-31T18:44:45.362Z,3.45
2022-12-31T18:47:13.763Z,3.95
2022-12-31T18:49:41.206Z,3.28
2022-12-31T18:52:14.383Z,3.70
2022-12-31T18:54:41.338Z,2.90
2022-12-31T18:57:10.946Z,3.08
2022-12-31T18:59:37.424Z,6.00
2022-12-31T19:02:04.325Z,5.40
2022-12-31T19:04:30.945Z,4.38
2022-12-31T19:06:57.360Z,4.10
2022-12-31T19:09:44.617Z,21.42
2022-12-31T19:12:12.797Z,4.72
2022-12-31T19:14:39.261Z,3.45
2022-12-31T19:19:34.726Z,3.88
2022-12-31T19:22:01.467Z,4.05
2022-12-31T19:24:28.174Z,2.92
2022-12-31T19:26:55.296Z,5.15
2022-12-31T19:29:28.410Z,3.42
2022-12-31T19:31:54.999Z,4.22
2022-12-31T19:34:21.781Z,2.97
2022-12-31T19:36:48.282Z,5.13
2022-12-31T19:39:17.452Z,7.15
2022-12-31T19:41:44.560Z,7.65
2022-12-31T19:44:16.354Z,6.25
2022-12-31T19:46:43.186Z,3.33
2022-12-31T19:49:13.626Z,4.18
2022-12-31T19:51:40.683Z,3.58
2022-12-31T19:54:07.624Z,2.80
2022-12-31T19:56:34.116Z,3.33
2022-12-31T19:59:08.475Z,3.35
2022-12-31T20:01:35.060Z,3.45
2022-12-31T20:04:01.740Z,3.08
2022-12-31T20:06:29.391Z,3.95
2022-12-31T20:08:55.872Z,3.85
2022-12-31T20:11:24.024Z,4.78
2022-12-31T20:13:52.743Z,3.78
2022-12-31T20:16:21.733Z,3.92
2022-12-31T20:18:48.736Z,5.97
2022-12-31T20:21:18.648Z,2.60
2022-12-31T20:23:45.612Z,3.35
2022-12-31T20:26:12.469Z,3.65
2022-12-31T20:28:39.228Z,3.65
2022-12-31T20:31:11.652Z,3.83
2022-12-31T20:33:38.173Z,2.88
2022-12-31T20:36:06.377Z,3.47
2022-12-31T20:38:32.864Z,3.33
2022-12-31T20:41:04.253Z,4.53
2022-12-31T20:43:32.811Z,4.20
2022-12-31T20:45:59.467Z,3.50
2022-12-31T20:48:25.890Z,3.40
2022-12-31T20:50:56.707Z,3.40
2022-12-31T20:55:49.631Z,2.85
2022-12-31T20:58:16.422Z,3.33
2022-12-31T21:00:50.947Z,3.60
2022-12-31T21:04:02.232Z,3.67
2022-12-31T21:08:35.206Z,4.40
2022-12-31T21:11:02.572Z,4.70
2022-12-31T21:13:29.034Z,4.88
2022-12-31T21:15:55.884Z,4.80
2022-12-31T21:18:22.966Z,4.78
2022-12-31T21:20:51.694Z,4.40
2022-12-31T21:23:19.885Z,4.00
2022-12-31T21:25:49.834Z,3.60
2022-12-31T21:28:16.270Z,4.05
2022-12-31T21:30:42.751Z,3.53
2022-12-31T21:33:09.287Z,4.03
2022-12-31T21:35:48.701Z,3.80
2022-12-31T21:38:20.391Z,4.30
2022-12-31T21:40:47.731Z,4.30
2022-12-31T21:43:14.799Z,6.75
2022-12-31T21:45:41.971Z,6.10
2022-12-31T21:48:20.255Z,5.88
2022-12-31T21:50:48.587Z,5.78
2022-12-31T21:53:21.790Z,4.85
2022-12-31T21:56:08.943Z,7.65
2022-12-31T21:58:40.480Z,10.85
2022-12-31T22:01:28.521Z,16.58
2022-12-31T22:03:55.061Z,7.65
2022-12-31T22:06:23.750Z,5.57
2022-12-31T22:08:55.382Z,16.40
2022-12-31T22:11:24.171Z,12.88
2022-12-31T22:13:51.614Z,5.53
2022-12-31T22:16:20.171Z,7.72
2022-12-31T22:18:47.437Z,8.30
2022-12-31T22:21:20.616Z,6.55
2022-12-31T22:23:49.895Z,4.82
2022-12-31T22:26:18.827Z,4.60
2022-12-31T22:28:46.065Z,4.20
2022-12-31T22:31:14.252Z,4.72
2022-12-31T22:33:41.133Z,5.47
2022-12-31T22:36:11.608Z,5.68
2022-12-31T22:38:38.162Z,5.65
2022-12-31T22:41:11.130Z,4.93
2022-12-31T22:43:41.682Z,4.57
2022-12-31T22:46:10.441Z,4.50
2022-12-31T22:48:37.833Z,4.93
2022-12-31T22:51:04.713Z,3.63
2022-12-31T22:53:31.203Z,4.00
2022-12-31T22:55:58.357Z,4.18
2022-12-31T22:58:25.880Z,3.50
2022-12-31T23:00:53.261Z,3.47
2022-12-31T23:03:19.779Z,2.92
2022-12-31T23:05:51.461Z,3.30
2022-12-31T23:08:23.273Z,39.35
2022-12-31T23:11:05.482Z,16.85
2022-12-31T23:14:02.369Z,13.15
2022-12-31T23:16:48.607Z,35.08
2022-12-31T23:19:34.959Z,22.85
2022-12-31T23:22:22.971Z,22.13
2022-12-31T23:24:49.387Z,19.60
2022-12-31T23:27:15.850Z,40.85
2022-12-31T23:29:47.041Z,17.33
2022-12-31T23:32:18.337Z,14.75
2022-12-31T23:34:46.140Z,11.45
2022-12-31T23:37:14.103Z,16.00
2022-12-31T23:39:43.680Z,15.10
2022-12-31T23:42:10.483Z,13.25
2022-12-31T23:44:36.892Z,18.20
2022-12-31T23:47:03.400Z,19.50
2022-12-31T23:49:30.147Z,16.48
2022-12-31T23:51:56.607Z,18.45
2022-12-31T23:54:23.169Z,15.07
2022-12-31T23:56:49.559Z,11.38
2022-12-31T23:59:16.228Z,13.93
